sensor_id;sensor_type;location;lat;lon;timestamp;pressure;altitude;pressure_sealevel;temperature;humidity
62103;BME280;48077;48.104;11.702;2023-06-26T00:01:20;95582.25;;;14.34;84.42
62103;BME280;48077;48.104;11.702;2023-06-26T00:07:40;95575.13;;;14.18;84.16
62103;BME280;48077;48.104;11.702;2023-06-26T00:10:04;95579.38;;;14.14;84.64
62103;BME280;48077;48.104;11.702;2023-06-26T00:12:28;95585.06;;;14.17;84.66
62103;BME280;48077;48.104;11.702;2023-06-26T00:14:52;95573.97;;;14.09;84.55
62103;BME280;48077;48.104;11.702;2023-06-26T00:17:15;95566.97;;;14.08;84.99
62103;BME280;48077;48.104;11.702;2023-06-26T00:19:39;95576.91;;;14.07;84.95
62103;BME280;48077;48.104;11.702;2023-06-26T00:22:02;95581.72;;;14.05;85.43
62103;BME280;48077;48.104;11.702;2023-06-26T00:24:26;95564.72;;;13.94;85.68
62103;BME280;48077;48.104;11.702;2023-06-26T00:26:49;95579.03;;;14.05;85.78
62103;BME280;48077;48.104;11.702;2023-06-26T00:29:13;95580.59;;;14.01;85.66
62103;BME280;48077;48.104;11.702;2023-06-26T00:31:36;95571.66;;;13.95;85.74
62103;BME280;48077;48.104;11.702;2023-06-26T00:34:01;95586.75;;;14.02;85.47
62103;BME280;48077;48.104;11.702;2023-06-26T00:36:25;95581.34;;;13.96;84.89
62103;BME280;48077;48.104;11.702;2023-06-26T00:38:50;95583.78;;;13.98;85.17
62103;BME280;48077;48.104;11.702;2023-06-26T00:41:13;95589.41;;;13.96;85.21
62103;BME280;48077;48.104;11.702;2023-06-26T00:43:36;95590.72;;;13.94;85.36
62103;BME280;48077;48.104;11.702;2023-06-26T00:46:00;95590.16;;;13.92;85.24
62103;BME280;48077;48.104;11.702;2023-06-26T00:48:23;95591.44;;;13.89;85.21
62103;BME280;48077;48.104;11.702;2023-06-26T00:50:46;95576.56;;;13.76;85.50
62103;BME280;48077;48.104;11.702;2023-06-26T00:53:11;95592.28;;;13.90;85.37
62103;BME280;48077;48.104;11.702;2023-06-26T00:55:35;95578.88;;;13.90;85.28
62103;BME280;48077;48.104;11.702;2023-06-26T00:57:58;95570.44;;;13.81;85.25
62103;BME280;48077;48.104;11.702;2023-06-26T01:00:24;95589.63;;;13.95;84.84
62103;BME280;48077;48.104;11.702;2023-06-26T01:02:48;95593.97;;;13.96;84.23
62103;BME280;48077;48.104;11.702;2023-06-26T01:05:11;95586.72;;;13.96;84.19
62103;BME280;48077;48.104;11.702;2023-06-26T01:07:36;95587.50;;;13.97;83.90
62103;BME280;48077;48.104;11.702;2023-06-26T01:10:00;95571.06;;;13.88;83.48
62103;BME280;48077;48.104;11.702;2023-06-26T01:12:24;95578.09;;;13.94;83.52
62103;BME280;48077;48.104;11.702;2023-06-26T01:14:47;95580.72;;;13.89;83.31
62103;BME280;48077;48.104;11.702;2023-06-26T01:17:11;95582.66;;;13.94;83.15
62103;BME280;48077;48.104;11.702;2023-06-26T01:19:38;95581.59;;;13.95;83.00
62103;BME280;48077;48.104;11.702;2023-06-26T01:27:46;95578.91;;;13.95;82.72
62103;BME280;48077;48.104;11.702;2023-06-26T01:30:10;95580.00;;;13.94;82.53
62103;BME280;48077;48.104;11.702;2023-06-26T01:32:34;95574.06;;;13.92;82.48
62103;BME280;48077;48.104;11.702;2023-06-26T01:34:58;95576.47;;;13.93;82.17
62103;BME280;48077;48.104;11.702;2023-06-26T01:37:22;95578.34;;;13.93;82.29
62103;BME280;48077;48.104;11.702;2023-06-26T01:39:45;95576.75;;;13.92;82.27
62103;BME280;48077;48.104;11.702;2023-06-26T01:42:09;95567.28;;;13.84;82.29
62103;BME280;48077;48.104;11.702;2023-06-26T01:44:35;95573.75;;;13.88;81.98
62103;BME280;48077;48.104;11.702;2023-06-26T01:47:04;95571.06;;;13.88;82.18
62103;BME280;48077;48.104;11.702;2023-06-26T01:49:50;95569.44;;;13.87;82.14
62103;BME280;48077;48.104;11.702;2023-06-26T01:52:27;95566.75;;;13.87;81.88
62103;BME280;48077;48.104;11.702;2023-06-26T01:55:21;95565.47;;;13.90;81.63
62103;BME280;48077;48.104;11.702;2023-06-26T01:57:47;95573.00;;;13.93;81.21
62103;BME280;48077;48.104;11.702;2023-06-26T02:00:11;95567.38;;;13.94;81.32
62103;BME280;48077;48.104;11.702;2023-06-26T02:02:35;95563.59;;;13.90;81.06
62103;BME280;48077;48.104;11.702;2023-06-26T02:04:59;95571.13;;;13.93;81.17
62103;BME280;48077;48.104;11.702;2023-06-26T02:07:22;95567.06;;;13.91;81.39
62103;BME280;48077;48.104;11.702;2023-06-26T02:09:46;95562.47;;;13.86;81.44
62103;BME280;48077;48.104;11.702;2023-06-26T02:12:09;95575.06;;;13.86;81.35
62103;BME280;48077;48.104;11.702;2023-06-26T02:14:33;95569.16;;;13.84;81.48
62103;BME280;48077;48.104;11.702;2023-06-26T02:16:56;95571.00;;;13.83;81.56
62103;BME280;48077;48.104;11.702;2023-06-26T02:19:20;95578.47;;;13.81;81.96
62103;BME280;48077;48.104;11.702;2023-06-26T02:21:44;95560.63;;;13.65;82.24
62103;BME280;48077;48.104;11.702;2023-06-26T02:24:07;95576.75;;;13.70;82.20
62103;BME280;48077;48.104;11.702;2023-06-26T02:26:31;95576.16;;;13.63;82.60
62103;BME280;48077;48.104;11.702;2023-06-26T02:28:54;95576.38;;;13.61;82.78
62103;BME280;48077;48.104;11.702;2023-06-26T02:31:18;95583.06;;;13.59;82.53
62103;BME280;48077;48.104;11.702;2023-06-26T02:33:41;95585.44;;;13.55;82.56
62103;BME280;48077;48.104;11.702;2023-06-26T02:36:05;95580.50;;;13.47;82.75
62103;BME280;48077;48.104;11.702;2023-06-26T02:38:31;95568.34;;;13.39;83.12
62103;BME280;48077;48.104;11.702;2023-06-26T02:40:54;95570.97;;;13.34;83.79
62103;BME280;48077;48.104;11.702;2023-06-26T02:43:18;95582.22;;;13.36;84.62
62103;BME280;48077;48.104;11.702;2023-06-26T02:45:41;95575.00;;;13.36;84.54
62103;BME280;48077;48.104;11.702;2023-06-26T02:48:05;95569.03;;;13.29;85.20
62103;BME280;48077;48.104;11.702;2023-06-26T02:50:28;95585.97;;;13.35;85.02
62103;BME280;48077;48.104;11.702;2023-06-26T02:52:51;95572.97;;;13.27;85.04
62103;BME280;48077;48.104;11.702;2023-06-26T02:55:15;95579.94;;;13.28;85.38
62103;BME280;48077;48.104;11.702;2023-06-26T02:57:39;95573.78;;;13.27;85.12
62103;BME280;48077;48.104;11.702;2023-06-26T03:00:02;95581.50;;;13.24;85.38
62103;BME280;48077;48.104;11.702;2023-06-26T03:02:25;95580.13;;;13.21;85.42
62103;BME280;48077;48.104;11.702;2023-06-26T03:04:49;95585.78;;;13.25;85.25
62103;BME280;48077;48.104;11.702;2023-06-26T03:07:13;95581.75;;;13.22;85.62
62103;BME280;48077;48.104;11.702;2023-06-26T03:09:36;95574.22;;;13.19;85.68
62103;BME280;48077;48.104;11.702;2023-06-26T03:11:59;95574.94;;;13.14;85.82
62103;BME280;48077;48.104;11.702;2023-06-26T03:14:23;95565.72;;;13.05;86.15
62103;BME280;48077;48.104;11.702;2023-06-26T03:16:46;95570.03;;;13.06;86.32
62103;BME280;48077;48.104;11.702;2023-06-26T03:19:10;95572.38;;;13.03;86.30
62103;BME280;48077;48.104;11.702;2023-06-26T03:21:33;95570.50;;;13.03;86.54
62103;BME280;48077;48.104;11.702;2023-06-26T03:23:57;95552.13;;;12.90;86.18
62103;BME280;48077;48.104;11.702;2023-06-26T03:26:20;95563.97;;;12.94;86.27
62103;BME280;48077;48.104;11.702;2023-06-26T03:28:43;95573.59;;;12.95;86.19
62103;BME280;48077;48.104;11.702;2023-06-26T03:31:07;95570.84;;;12.90;86.12
62103;BME280;48077;48.104;11.702;2023-06-26T03:33:30;95565.66;;;12.83;86.67
62103;BME280;48077;48.104;11.702;2023-06-26T03:35:53;95572.13;;;12.87;86.58
62103;BME280;48077;48.104;11.702;2023-06-26T03:38:17;95571.56;;;12.85;86.86
62103;BME280;48077;48.104;11.702;2023-06-26T03:40:42;95567.84;;;12.86;87.08
62103;BME280;48077;48.104;11.702;2023-06-26T03:43:06;95573.78;;;12.88;87.21
62103;BME280;48077;48.104;11.702;2023-06-26T03:45:29;95585.03;;;12.90;86.53
62103;BME280;48077;48.104;11.702;2023-06-26T03:47:53;95583.72;;;12.93;86.64
62103;BME280;48077;48.104;11.702;2023-06-26T03:50:16;95575.94;;;12.91;86.49
62103;BME280;48077;48.104;11.702;2023-06-26T03:52:40;95581.16;;;12.98;86.72
62103;BME280;48077;48.104;11.702;2023-06-26T03:55:03;95580.66;;;13.01;86.70
62103;BME280;48077;48.104;11.702;2023-06-26T03:57:27;95580.41;;;13.03;86.55
62103;BME280;48077;48.104;11.702;2023-06-26T03:59:52;95582.84;;;13.04;86.03
62103;BME280;48077;48.104;11.702;2023-06-26T04:02:16;95582.34;;;13.07;86.00
62103;BME280;48077;48.104;11.702;2023-06-26T04:04:39;95574.63;;;13.11;85.74
62103;BME280;48077;48.104;11.702;2023-06-26T04:07:03;95576.91;;;13.19;85.44
62103;BME280;48077;48.104;11.702;2023-06-26T04:09:26;95573.22;;;13.25;85.12
62103;BME280;48077;48.104;11.702;2023-06-26T04:11:49;95577.88;;;13.30;85.07
62103;BME280;48077;48.104;11.702;2023-06-26T04:14:13;95578.00;;;13.40;84.69
62103;BME280;48077;48.104;11.702;2023-06-26T04:16:36;95574.56;;;13.45;84.72
62103;BME280;48077;48.104;11.702;2023-06-26T04:18:59;95574.56;;;13.45;85.25
62103;BME280;48077;48.104;11.702;2023-06-26T04:21:24;95556.34;;;13.42;85.21
62103;BME280;48077;48.104;11.702;2023-06-26T04:23:48;95574.16;;;13.53;85.06
62103;BME280;48077;48.104;11.702;2023-06-26T04:26:11;95577.19;;;13.62;85.07
62103;BME280;48077;48.104;11.702;2023-06-26T04:28:37;95565.91;;;13.60;85.69
62103;BME280;48077;48.104;11.702;2023-06-26T04:31:01;95571.91;;;13.67;85.55
62103;BME280;48077;48.104;11.702;2023-06-26T04:33:26;95566.78;;;13.65;85.56
62103;BME280;48077;48.104;11.702;2023-06-26T04:35:49;95554.44;;;13.64;86.07
62103;BME280;48077;48.104;11.702;2023-06-26T04:38:13;95582.03;;;13.87;86.12
62103;BME280;48077;48.104;11.702;2023-06-26T04:40:36;95567.28;;;13.84;85.84
62103;BME280;48077;48.104;11.702;2023-06-26T04:43:00;95576.31;;;14.00;85.84
62103;BME280;48077;48.104;11.702;2023-06-26T04:45:23;95583.38;;;14.11;85.36
62103;BME280;48077;48.104;11.702;2023-06-26T04:47:46;95586.09;;;14.16;85.18
62103;BME280;48077;48.104;11.702;2023-06-26T04:50:10;95590.53;;;14.28;84.90
62103;BME280;48077;48.104;11.702;2023-06-26T04:52:33;95583.13;;;14.40;83.38
62103;BME280;48077;48.104;11.702;2023-06-26T04:54:57;95586.19;;;14.54;82.16
62103;BME280;48077;48.104;11.702;2023-06-26T04:57:22;95570.75;;;14.66;81.12
62103;BME280;48077;48.104;11.702;2023-06-26T04:59:45;95574.06;;;14.78;80.82
62103;BME280;48077;48.104;11.702;2023-06-26T05:02:09;95551.25;;;14.76;80.61
62103;BME280;48077;48.104;11.702;2023-06-26T05:04:32;95579.34;;;15.01;79.88
62103;BME280;48077;48.104;11.702;2023-06-26T05:06:55;95579.13;;;15.12;79.74
62103;BME280;48077;48.104;11.702;2023-06-26T05:09:19;95579.47;;;15.21;79.35
62103;BME280;48077;48.104;11.702;2023-06-26T05:11:42;95576.31;;;15.34;78.85
62103;BME280;48077;48.104;11.702;2023-06-26T05:14:05;95581.75;;;15.45;78.21
62103;BME280;48077;48.104;11.702;2023-06-26T05:16:33;95575.09;;;15.57;77.40
62103;BME280;48077;48.104;11.702;2023-06-26T05:18:56;95581.59;;;15.67;77.09
62103;BME280;48077;48.104;11.702;2023-06-26T05:21:20;95584.34;;;15.77;77.19
62103;BME280;48077;48.104;11.702;2023-06-26T05:23:44;95573.06;;;15.85;76.78
62103;BME280;48077;48.104;11.702;2023-06-26T05:26:08;95566.38;;;15.93;75.89
62103;BME280;48077;48.104;11.702;2023-06-26T05:28:32;95585.53;;;16.12;75.57
62103;BME280;48077;48.104;11.702;2023-06-26T05:30:55;95574.78;;;16.17;75.08
62103;BME280;48077;48.104;11.702;2023-06-26T05:33:21;95569.94;;;16.24;74.83
62103;BME280;48077;48.104;11.702;2023-06-26T05:35:47;95572.91;;;16.33;74.73
62103;BME280;48077;48.104;11.702;2023-06-26T05:38:14;95580.75;;;16.50;74.81
62103;BME280;48077;48.104;11.702;2023-06-26T05:40:37;95568.13;;;16.50;74.66
62103;BME280;48077;48.104;11.702;2023-06-26T05:43:01;95575.38;;;16.65;74.06
62103;BME280;48077;48.104;11.702;2023-06-26T05:45:25;95570.53;;;16.77;73.71
62103;BME280;48077;48.104;11.702;2023-06-26T05:47:48;95562.75;;;16.81;73.54
62103;BME280;48077;48.104;11.702;2023-06-26T05:50:13;95576.75;;;16.98;73.31
62103;BME280;48077;48.104;11.702;2023-06-26T05:52:37;95565.41;;;17.02;72.69
62103;BME280;48077;48.104;11.702;2023-06-26T05:55:02;95571.88;;;17.16;72.08
62103;BME280;48077;48.104;11.702;2023-06-26T05:57:29;95571.31;;;17.24;72.07
62103;BME280;48077;48.104;11.702;2023-06-26T05:59:53;95567.25;;;17.42;71.30
62103;BME280;48077;48.104;11.702;2023-06-26T06:02:17;95569.66;;;17.49;70.76
62103;BME280;48077;48.104;11.702;2023-06-26T06:04:40;95577.66;;;17.64;70.55
62103;BME280;48077;48.104;11.702;2023-06-26T06:07:04;95572.50;;;17.73;70.31
62103;BME280;48077;48.104;11.702;2023-06-26T06:09:27;95577.88;;;17.88;70.26
62103;BME280;48077;48.104;11.702;2023-06-26T06:11:51;95572.72;;;17.97;69.27
62103;BME280;48077;48.104;11.702;2023-06-26T06:14:14;95573.47;;;18.08;68.47
62103;BME280;48077;48.104;11.702;2023-06-26T06:16:37;95563.72;;;18.12;68.32
62103;BME280;48077;48.104;11.702;2023-06-26T06:19:01;95573.63;;;18.27;67.69
62103;BME280;48077;48.104;11.702;2023-06-26T06:21:26;95574.34;;;18.43;67.07
62103;BME280;48077;48.104;11.702;2023-06-26T06:23:52;95569.13;;;18.56;67.15
62103;BME280;48077;48.104;11.702;2023-06-26T06:26:15;95570.38;;;18.69;66.50
62103;BME280;48077;48.104;11.702;2023-06-26T06:28:41;95573.78;;;18.85;65.85
62103;BME280;48077;48.104;11.702;2023-06-26T06:31:05;95559.38;;;18.95;63.10
62103;BME280;48077;48.104;11.702;2023-06-26T06:33:28;95566.72;;;19.18;62.42
62103;BME280;48077;48.104;11.702;2023-06-26T06:35:52;95572.00;;;19.34;62.66
62103;BME280;48077;48.104;11.702;2023-06-26T06:38:15;95559.22;;;19.39;61.38
62103;BME280;48077;48.104;11.702;2023-06-26T06:40:39;95564.47;;;19.55;60.30
62103;BME280;48077;48.104;11.702;2023-06-26T06:43:02;95562.59;;;19.79;58.11
62103;BME280;48077;48.104;11.702;2023-06-26T06:45:25;95572.69;;;19.93;58.33
62103;BME280;48077;48.104;11.702;2023-06-26T06:47:49;95574.47;;;20.02;57.70
62103;BME280;48077;48.104;11.702;2023-06-26T06:50:12;95574.34;;;20.13;57.70
62103;BME280;48077;48.104;11.702;2023-06-26T06:52:37;95567.97;;;20.22;58.27
62103;BME280;48077;48.104;11.702;2023-06-26T06:55:01;95568.78;;;20.42;55.32
62103;BME280;48077;48.104;11.702;2023-06-26T06:57:29;95570.41;;;20.62;54.28
62103;BME280;48077;48.104;11.702;2023-06-26T06:59:52;95575.59;;;20.77;53.82
62103;BME280;48077;48.104;11.702;2023-06-26T07:02:19;95571.13;;;20.87;53.71
62103;BME280;48077;48.104;11.702;2023-06-26T07:04:42;95574.97;;;20.99;53.24
62103;BME280;48077;48.104;11.702;2023-06-26T07:07:05;95571.78;;;21.11;52.25
62103;BME280;48077;48.104;11.702;2023-06-26T07:09:29;95570.94;;;21.30;51.57
62103;BME280;48077;48.104;11.702;2023-06-26T07:11:52;95562.81;;;21.43;50.52
62103;BME280;48077;48.104;11.702;2023-06-26T07:14:15;95566.44;;;21.67;49.43
62103;BME280;48077;48.104;11.702;2023-06-26T07:16:39;95563.16;;;21.83;49.06
62103;BME280;48077;48.104;11.702;2023-06-26T07:19:02;95556.41;;;21.95;48.51
62103;BME280;48077;48.104;11.702;2023-06-26T07:21:25;95565.34;;;22.09;48.34
62103;BME280;48077;48.104;11.702;2023-06-26T07:23:49;95562.31;;;22.25;47.80
62103;BME280;48077;48.104;11.702;2023-06-26T07:26:14;95566.41;;;22.36;47.20
62103;BME280;48077;48.104;11.702;2023-06-26T07:28:37;95558.41;;;22.53;46.19
62103;BME280;48077;48.104;11.702;2023-06-26T07:31:01;95560.59;;;22.65;46.33
62103;BME280;48077;48.104;11.702;2023-06-26T07:33:24;95562.75;;;22.77;45.66
62103;BME280;48077;48.104;11.702;2023-06-26T07:35:47;95557.69;;;22.84;45.64
62103;BME280;48077;48.104;11.702;2023-06-26T07:38:11;95574.06;;;22.93;45.87
62103;BME280;48077;48.104;11.702;2023-06-26T07:40:34;95568.69;;;23.01;45.81
62103;BME280;48077;48.104;11.702;2023-06-26T07:42:57;95568.75;;;23.10;44.49
62103;BME280;48077;48.104;11.702;2023-06-26T07:45:21;95556.97;;;23.15;44.89
62103;BME280;48077;48.104;11.702;2023-06-26T07:47:45;95566.50;;;23.35;44.73
62103;BME280;48077;48.104;11.702;2023-06-26T07:50:09;95555.16;;;23.41;43.85
62103;BME280;48077;48.104;11.702;2023-06-26T07:52:32;95556.81;;;23.51;43.37
62103;BME280;48077;48.104;11.702;2023-06-26T07:54:56;95553.97;;;23.56;43.38
62103;BME280;48077;48.104;11.702;2023-06-26T07:57:20;95561.69;;;23.72;43.34
62103;BME280;48077;48.104;11.702;2023-06-26T07:59:43;95567.63;;;23.74;44.27
62103;BME280;48077;48.104;11.702;2023-06-26T08:02:07;95558.06;;;23.76;43.74
62103;BME280;48077;48.104;11.702;2023-06-26T08:04:30;95555.03;;;23.87;43.89
62103;BME280;48077;48.104;11.702;2023-06-26T08:06:58;95562.75;;;23.93;44.29
62103;BME280;48077;48.104;11.702;2023-06-26T08:09:23;95555.41;;;24.02;44.53
62103;BME280;48077;48.104;11.702;2023-06-26T08:11:47;95547.88;;;24.08;44.52
62103;BME280;48077;48.104;11.702;2023-06-26T08:14:11;95555.94;;;24.31;44.80
62103;BME280;48077;48.104;11.702;2023-06-26T08:16:40;95552.91;;;24.41;43.68
62103;BME280;48077;48.104;11.702;2023-06-26T08:19:04;95556.97;;;24.52;42.11
62103;BME280;48077;48.104;11.702;2023-06-26T08:21:28;95558.06;;;24.60;42.68
62103;BME280;48077;48.104;11.702;2023-06-26T08:23:52;95558.88;;;24.69;42.38
62103;BME280;48077;48.104;11.702;2023-06-26T08:26:15;95554.38;;;24.73;42.72
62103;BME280;48077;48.104;11.702;2023-06-26T08:28:39;95555.97;;;24.74;42.97
62103;BME280;48077;48.104;11.702;2023-06-26T08:31:02;95554.88;;;24.75;42.49
62103;BME280;48077;48.104;11.702;2023-06-26T08:33:25;95547.66;;;24.79;42.09
62103;BME280;48077;48.104;11.702;2023-06-26T08:35:50;95545.88;;;24.83;42.47
62103;BME280;48077;48.104;11.702;2023-06-26T08:38:13;95554.53;;;24.94;42.55
62103;BME280;48077;48.104;11.702;2023-06-26T08:40:36;95549.84;;;25.03;42.39
62103;BME280;48077;48.104;11.702;2023-06-26T08:43:01;95555.16;;;25.09;42.85
62103;BME280;48077;48.104;11.702;2023-06-26T08:45:26;95556.41;;;25.20;41.59
62103;BME280;48077;48.104;11.702;2023-06-26T08:47:53;95544.38;;;25.30;41.42
62103;BME280;48077;48.104;11.702;2023-06-26T08:50:19;95546.09;;;25.43;41.88
62103;BME280;48077;48.104;11.702;2023-06-26T08:52:48;95548.13;;;25.55;41.51
62103;BME280;48077;48.104;11.702;2023-06-26T08:55:16;95546.97;;;25.64;40.97
62103;BME280;48077;48.104;11.702;2023-06-26T08:57:40;95546.78;;;25.70;41.08
62103;BME280;48077;48.104;11.702;2023-06-26T09:00:05;95532.34;;;25.69;40.54
62103;BME280;48077;48.104;11.702;2023-06-26T09:02:28;95534.97;;;25.87;39.92
62103;BME280;48077;48.104;11.702;2023-06-26T09:04:52;95544.09;;;25.99;39.74
62103;BME280;48077;48.104;11.702;2023-06-26T09:07:16;95539.19;;;26.14;39.15
62103;BME280;48077;48.104;11.702;2023-06-26T09:09:39;95539.59;;;26.24;38.95
62103;BME280;48077;48.104;11.702;2023-06-26T09:12:03;95529.28;;;26.30;39.38
62103;BME280;48077;48.104;11.702;2023-06-26T09:14:26;95523.19;;;26.45;40.05
62103;BME280;48077;48.104;11.702;2023-06-26T09:16:52;95529.22;;;26.60;37.20
62103;BME280;48077;48.104;11.702;2023-06-26T09:19:15;95531.22;;;26.72;37.13
62103;BME280;48077;48.104;11.702;2023-06-26T09:21:40;95538.25;;;26.94;38.10
62103;BME280;48077;48.104;11.702;2023-06-26T09:24:05;95538.66;;;27.04;35.99
62103;BME280;48077;48.104;11.702;2023-06-26T09:26:29;95524.63;;;27.06;36.42
62103;BME280;48077;48.104;11.702;2023-06-26T09:28:53;95520.19;;;27.14;37.08
62103;BME280;48077;48.104;11.702;2023-06-26T09:31:17;95529.00;;;27.19;37.47
62103;BME280;48077;48.104;11.702;2023-06-26T09:33:40;95508.34;;;27.22;36.73
62103;BME280;48077;48.104;11.702;2023-06-26T09:36:18;95514.78;;;27.26;36.44
62103;BME280;48077;48.104;11.702;2023-06-26T09:38:43;95512.28;;;27.33;35.69
62103;BME280;48077;48.104;11.702;2023-06-26T09:41:06;95521.44;;;27.50;36.02
62103;BME280;48077;48.104;11.702;2023-06-26T09:43:29;95499.84;;;27.60;35.20
62103;BME280;48077;48.104;11.702;2023-06-26T09:45:54;95525.22;;;27.70;35.36
62103;BME280;48077;48.104;11.702;2023-06-26T09:48:18;95518.56;;;27.58;34.75
62103;BME280;48077;48.104;11.702;2023-06-26T09:50:42;95512.44;;;27.61;36.33
62103;BME280;48077;48.104;11.702;2023-06-26T09:53:12;95513.34;;;27.78;35.59
62103;BME280;48077;48.104;11.702;2023-06-26T09:55:39;95501.50;;;27.98;35.11
62103;BME280;48077;48.104;11.702;2023-06-26T09:58:08;95496.13;;;27.90;35.02
62103;BME280;48077;48.104;11.702;2023-06-26T10:00:32;95499.06;;;27.72;35.07
62103;BME280;48077;48.104;11.702;2023-06-26T10:02:55;95493.34;;;27.40;36.86
62103;BME280;48077;48.104;11.702;2023-06-26T10:05:19;95489.72;;;27.61;35.06
62103;BME280;48077;48.104;11.702;2023-06-26T10:07:42;95492.91;;;27.51;35.51
62103;BME280;48077;48.104;11.702;2023-06-26T10:10:07;95485.16;;;27.77;35.08
62103;BME280;48077;48.104;11.702;2023-06-26T10:12:31;95487.06;;;27.64;35.97
62103;BME280;48077;48.104;11.702;2023-06-26T10:14:56;95486.97;;;27.73;35.62
62103;BME280;48077;48.104;11.702;2023-06-26T10:17:20;95479.59;;;27.86;35.65
62103;BME280;48077;48.104;11.702;2023-06-26T10:19:45;95487.34;;;27.96;35.58
62103;BME280;48077;48.104;11.702;2023-06-26T10:22:09;95482.53;;;27.93;33.03
62103;BME280;48077;48.104;11.702;2023-06-26T10:24:35;95487.66;;;27.70;34.01
62103;BME280;48077;48.104;11.702;2023-06-26T10:27:08;95489.47;;;27.66;33.13
62103;BME280;48077;48.104;11.702;2023-06-26T10:29:34;95487.31;;;27.59;33.51
62103;BME280;48077;48.104;11.702;2023-06-26T10:32:00;95491.31;;;27.74;33.34
62103;BME280;48077;48.104;11.702;2023-06-26T10:34:25;95491.47;;;27.90;33.37
62103;BME280;48077;48.104;11.702;2023-06-26T10:36:59;95481.53;;;28.38;33.43
62103;BME280;48077;48.104;11.702;2023-06-26T10:39:23;95487.25;;;28.33;33.39
62103;BME280;48077;48.104;11.702;2023-06-26T10:41:46;95474.69;;;28.32;32.42
62103;BME280;48077;48.104;11.702;2023-06-26T10:44:16;95476.56;;;28.16;33.50
62103;BME280;48077;48.104;11.702;2023-06-26T10:46:49;95466.31;;;28.00;33.12
62103;BME280;48077;48.104;11.702;2023-06-26T10:49:13;95467.22;;;28.04;33.55
62103;BME280;48077;48.104;11.702;2023-06-26T10:51:37;95475.53;;;28.08;33.10
62103;BME280;48077;48.104;11.702;2023-06-26T10:54:00;95475.00;;;28.55;32.08
62103;BME280;48077;48.104;11.702;2023-06-26T10:56:44;95475.06;;;28.71;32.10
62103;BME280;48077;48.104;11.702;2023-06-26T10:59:16;95460.28;;;28.35;32.38
62103;BME280;48077;48.104;11.702;2023-06-26T11:01:40;95460.81;;;28.13;32.57
62103;BME280;48077;48.104;11.702;2023-06-26T11:04:06;95463.00;;;27.95;33.22
62103;BME280;48077;48.104;11.702;2023-06-26T11:06:30;95469.63;;;28.46;31.76
62103;BME280;48077;48.104;11.702;2023-06-26T11:09:00;95460.09;;;28.84;32.28
62103;BME280;48077;48.104;11.702;2023-06-26T11:14:23;95464.56;;;29.05;31.21
62103;BME280;48077;48.104;11.702;2023-06-26T11:16:46;95466.94;;;28.62;30.76
62103;BME280;48077;48.104;11.702;2023-06-26T11:19:11;95463.75;;;28.60;30.96
62103;BME280;48077;48.104;11.702;2023-06-26T11:21:34;95460.50;;;28.42;31.60
62103;BME280;48077;48.104;11.702;2023-06-26T11:23:58;95469.44;;;28.27;31.97
62103;BME280;48077;48.104;11.702;2023-06-26T11:26:24;95465.50;;;28.81;31.02
62103;BME280;48077;48.104;11.702;2023-06-26T11:28:51;95462.63;;;29.05;30.15
62103;BME280;48077;48.104;11.702;2023-06-26T11:31:28;95462.19;;;29.03;30.11
62103;BME280;48077;48.104;11.702;2023-06-26T11:33:56;95458.16;;;29.29;30.37
62103;BME280;48077;48.104;11.702;2023-06-26T11:36:20;95459.56;;;29.23;31.42
62103;BME280;48077;48.104;11.702;2023-06-26T11:38:45;95456.75;;;28.91;31.01
62103;BME280;48077;48.104;11.702;2023-06-26T11:41:09;95455.06;;;28.86;30.68
62103;BME280;48077;48.104;11.702;2023-06-26T11:43:33;95447.78;;;29.38;30.41
62103;BME280;48077;48.104;11.702;2023-06-26T11:45:57;95453.56;;;29.17;29.97
62103;BME280;48077;48.104;11.702;2023-06-26T11:48:20;95439.16;;;28.92;30.42
62103;BME280;48077;48.104;11.702;2023-06-26T11:50:44;95454.88;;;28.79;30.50
62103;BME280;48077;48.104;11.702;2023-06-26T11:53:07;95450.84;;;28.61;30.81
62103;BME280;48077;48.104;11.702;2023-06-26T11:55:40;95444.03;;;28.42;31.13
62103;BME280;48077;48.104;11.702;2023-06-26T11:58:04;95454.25;;;28.30;32.44
62103;BME280;48077;48.104;11.702;2023-06-26T12:00:30;95441.06;;;28.76;31.66
62103;BME280;48077;48.104;11.702;2023-06-26T12:02:55;95446.53;;;29.52;31.38
62103;BME280;48077;48.104;11.702;2023-06-26T12:05:20;95432.53;;;30.08;31.17
62103;BME280;48077;48.104;11.702;2023-06-26T12:07:45;95446.84;;;30.53;29.75
62103;BME280;48077;48.104;11.702;2023-06-26T12:10:11;95443.97;;;30.10;31.29
62103;BME280;48077;48.104;11.702;2023-06-26T12:12:35;95445.03;;;29.70;30.42
62103;BME280;48077;48.104;11.702;2023-06-26T12:15:01;95447.53;;;29.75;31.69
62103;BME280;48077;48.104;11.702;2023-06-26T12:17:24;95451.88;;;29.44;31.58
62103;BME280;48077;48.104;11.702;2023-06-26T12:19:48;95456.78;;;29.07;31.52
62103;BME280;48077;48.104;11.702;2023-06-26T12:22:11;95448.31;;;29.76;31.25
62103;BME280;48077;48.104;11.702;2023-06-26T12:24:38;95446.56;;;30.38;30.55
62103;BME280;48077;48.104;11.702;2023-06-26T12:27:02;95442.56;;;30.94;29.11
62103;BME280;48077;48.104;11.702;2023-06-26T12:29:31;95426.84;;;31.41;28.32
62103;BME280;48077;48.104;11.702;2023-06-26T12:31:55;95435.59;;;31.70;27.83
62103;BME280;48077;48.104;11.702;2023-06-26T12:34:28;95435.84;;;31.38;27.78
62103;BME280;48077;48.104;11.702;2023-06-26T12:36:53;95444.81;;;31.81;27.41
62103;BME280;48077;48.104;11.702;2023-06-26T12:39:22;95432.53;;;32.01;25.84
62103;BME280;48077;48.104;11.702;2023-06-26T12:41:48;95438.84;;;31.29;27.39
62103;BME280;48077;48.104;11.702;2023-06-26T12:44:41;95440.50;;;31.11;27.47
62103;BME280;48077;48.104;11.702;2023-06-26T12:47:04;95429.22;;;31.65;27.61
62103;BME280;48077;48.104;11.702;2023-06-26T12:49:40;95426.19;;;32.28;27.42